createdAt,value
2023-03-10T00:00:14.374Z,13.69
2023-03-10T00:04:20.744Z,13.74
2023-03-10T00:08:27.136Z,13.73
2023-03-10T00:12:29.468Z,13.74
2023-03-10T00:16:31.687Z,13.70
2023-03-10T00:20:33.855Z,13.70
2023-03-10T00:24:36.189Z,13.61
2023-03-10T00:28:38.982Z,13.59
2023-03-10T00:32:41.229Z,13.55
2023-03-10T00:36:43.462Z,13.57
2023-03-10T00:40:45.924Z,13.52
2023-03-10T00:44:48.620Z,13.53
2023-03-10T00:48:51.425Z,13.54
2023-03-10T00:52:54.162Z,13.53
2023-03-10T00:56:56.518Z,13.59
2023-03-10T01:00:59.655Z,13.62
2023-03-10T01:05:02.093Z,13.62
2023-03-10T01:09:06.722Z,13.66
2023-03-10T01:13:11.773Z,13.58
2023-03-10T01:17:13.958Z,13.50
2023-03-10T01:21:20.458Z,13.54
2023-03-10T01:25:22.627Z,13.51
2023-03-10T01:29:24.859Z,13.45
2023-03-10T01:33:27.361Z,13.45
2023-03-10T01:37:29.582Z,13.47
2023-03-10T01:41:31.806Z,13.42
2023-03-10T01:45:34.289Z,13.36
2023-03-10T01:49:40.766Z,13.31
2023-03-10T01:53:43.406Z,13.32
2023-03-10T01:57:52.679Z,13.26
2023-03-10T02:01:57.125Z,13.19
2023-03-10T02:06:09.296Z,13.15
2023-03-10T02:10:14.825Z,13.06
2023-03-10T02:14:18.606Z,13.01
2023-03-10T02:18:22.380Z,12.92
2023-03-10T02:22:24.626Z,12.84
2023-03-10T02:26:35.720Z,12.92
2023-03-10T02:30:41.494Z,12.95
2023-03-10T02:34:44.248Z,13.02
2023-03-10T02:38:46.894Z,12.95
2023-03-10T02:42:49.040Z,12.90
2023-03-10T02:46:51.741Z,12.95
2023-03-10T02:50:55.100Z,12.95
2023-03-10T02:54:58.121Z,13.01
2023-03-10T02:59:03.461Z,13.02
2023-03-10T03:03:08.748Z,12.97
2023-03-10T03:07:11.304Z,12.89
2023-03-10T03:11:19.539Z,12.92
2023-03-10T03:15:24.168Z,12.93
2023-03-10T03:19:29.471Z,12.92
2023-03-10T03:23:33.780Z,12.93
2023-03-10T03:27:37.493Z,12.95
2023-03-10T03:31:41.092Z,12.96
2023-03-10T03:35:48.290Z,12.97
2023-03-10T03:39:52.900Z,12.94
2023-03-10T03:43:55.089Z,12.94
2023-03-10T03:47:57.682Z,12.86
2023-03-10T03:52:01.477Z,12.81
2023-03-10T03:56:04.517Z,12.76
2023-03-10T04:00:12.994Z,12.76
2023-03-10T04:04:20.033Z,12.79
2023-03-10T04:08:24.282Z,12.78
2023-03-10T04:12:27.732Z,12.82
2023-03-10T04:16:29.889Z,12.82
2023-03-10T04:20:32.308Z,12.73
2023-03-10T04:24:34.411Z,12.64
2023-03-10T04:28:37.799Z,12.74
2023-03-10T04:32:40.892Z,12.52
2023-03-10T04:36:44.287Z,12.40
2023-03-10T04:40:53.733Z,12.43
2023-03-10T04:44:56.233Z,12.40
2023-03-10T04:48:59.176Z,12.38
2023-03-10T04:53:01.366Z,12.50
2023-03-10T04:57:05.875Z,12.60
2023-03-10T05:01:14.127Z,12.52
2023-03-10T05:05:23.936Z,12.45
2023-03-10T05:09:26.764Z,12.46
2023-03-10T05:13:31.730Z,12.07
2023-03-10T05:17:34.683Z,11.83
2023-03-10T05:21:37.861Z,11.75
2023-03-10T05:25:40.427Z,11.65
2023-03-10T05:29:42.561Z,11.65
2023-03-10T05:33:53.676Z,11.71
2023-03-10T05:37:56.567Z,11.80
2023-03-10T05:41:58.850Z,11.99
2023-03-10T05:46:04.678Z,12.06
2023-03-10T05:50:10.767Z,12.08
2023-03-10T05:54:12.921Z,11.97
2023-03-10T05:58:15.045Z,11.72
2023-03-10T06:02:17.076Z,11.88
2023-03-10T06:06:19.208Z,12.04
2023-03-10T06:10:21.336Z,12.16
2023-03-10T06:19:07.585Z,12.17
2023-03-10T06:23:09.998Z,11.94
2023-03-10T06:27:12.176Z,11.92
2023-03-10T06:31:20.675Z,11.89
2023-03-10T06:35:23.017Z,12.04
2023-03-10T06:39:29.076Z,12.25
2023-03-10T06:43:32.506Z,12.56
2023-03-10T06:47:35.440Z,12.49
2023-03-10T06:51:40.036Z,12.51
2023-03-10T06:55:47.487Z,12.43
2023-03-10T06:59:50.696Z,12.43
2023-03-10T07:03:54.549Z,12.42
2023-03-10T07:07:56.939Z,12.47
2023-03-10T07:12:02.699Z,12.40
2023-03-10T07:16:19.133Z,12.42
2023-03-10T07:20:24.854Z,12.36
2023-03-10T07:24:27.979Z,12.34
2023-03-10T07:28:31.786Z,12.41
2023-03-10T07:32:39.385Z,12.53
2023-03-10T07:36:47.051Z,12.77
2023-03-10T07:40:52.187Z,12.74
2023-03-10T07:45:00.189Z,12.92
2023-03-10T07:49:05.103Z,12.87
2023-03-10T07:53:07.215Z,13.05
2023-03-10T07:57:09.402Z,13.36
2023-03-10T08:01:17.666Z,13.54
2023-03-10T08:05:19.814Z,13.80
2023-03-10T08:09:21.855Z,13.89
2023-03-10T08:13:23.911Z,14.16
2023-03-10T08:17:30.908Z,14.26
2023-03-10T08:21:33.173Z,14.32
2023-03-10T08:25:35.543Z,14.45
2023-03-10T08:29:37.806Z,14.90
2023-03-10T08:33:41.536Z,15.17
2023-03-10T08:37:45.139Z,15.47
2023-03-10T08:41:49.475Z,16.00
2023-03-10T08:45:56.328Z,15.24
2023-03-10T08:49:58.917Z,14.89
2023-03-10T08:54:01.336Z,14.69
2023-03-10T08:58:03.820Z,14.35
2023-03-10T09:02:06.741Z,14.14
2023-03-10T09:06:11.632Z,14.00
2023-03-10T09:10:13.800Z,14.04
2023-03-10T09:14:17.587Z,14.29
2023-03-10T09:18:21.786Z,14.57
2023-03-10T09:22:24.117Z,14.76
2023-03-10T09:26:26.589Z,14.93
2023-03-10T09:30:31.131Z,14.92
2023-03-10T09:34:34.609Z,14.96
2023-03-10T09:38:37.504Z,15.53
2023-03-10T09:42:43.259Z,15.47
2023-03-10T09:46:57.129Z,15.54
2023-03-10T09:51:05.983Z,15.64
2023-03-10T09:55:16.769Z,15.79
2023-03-10T09:59:37.693Z,16.26
2023-03-10T10:03:52.516Z,16.29
2023-03-10T10:07:59.001Z,15.99
2023-03-10T10:12:15.166Z,15.83
2023-03-10T10:16:33.649Z,15.73
2023-03-10T10:20:54.093Z,15.88
2023-03-10T10:25:10.168Z,15.88
2023-03-10T10:29:39.462Z,15.93
2023-03-10T10:33:56.128Z,15.86
2023-03-10T10:38:03.980Z,15.72
2023-03-10T10:42:24.941Z,15.74
2023-03-10T10:46:30.660Z,15.87
2023-03-10T10:50:36.191Z,16.20
2023-03-10T10:54:39.323Z,15.92
2023-03-10T10:58:46.123Z,15.63
2023-03-10T11:02:49.044Z,15.36
2023-03-10T11:06:53.750Z,15.14
2023-03-10T11:11:04.613Z,15.30
2023-03-10T11:15:09.898Z,15.02
2023-03-10T11:19:21.553Z,13.66
2023-03-10T11:23:53.754Z,13.33
2023-03-10T11:28:23.257Z,13.13
2023-03-10T11:32:29.607Z,12.84
2023-03-10T11:36:57.345Z,13.30
2023-03-10T11:41:06.672Z,13.75
2023-03-10T11:45:53.689Z,13.79
2023-03-10T11:50:34.727Z,13.77
2023-03-10T11:54:45.460Z,13.99
2023-03-10T11:58:51.749Z,14.08
2023-03-10T12:03:12.170Z,14.27
2023-03-10T12:07:21.820Z,14.40
2023-03-10T12:11:27.259Z,14.47
2023-03-10T12:15:37.027Z,14.54
2023-03-10T12:20:13.526Z,14.27
2023-03-10T12:24:45.186Z,14.30
2023-03-10T12:28:47.344Z,14.05
2023-03-10T12:32:49.688Z,13.76
2023-03-10T12:36:54.178Z,13.52
2023-03-10T12:40:57.276Z,12.84
2023-03-10T12:45:31.570Z,12.61
2023-03-10T12:49:56.993Z,12.45
2023-03-10T12:54:29.133Z,12.88
2023-03-10T12:58:31.228Z,13.30
2023-03-10T13:02:44.411Z,13.36
2023-03-10T13:06:48.693Z,13.95
2023-03-10T13:10:56.435Z,13.96
2023-03-10T13:15:00.887Z,14.01
2023-03-10T13:19:04.558Z,14.01
2023-03-10T13:23:18.315Z,14.22
2023-03-10T13:27:20.789Z,14.09
2023-03-10T13:31:28.362Z,13.99
2023-03-10T13:35:36.108Z,13.82
2023-03-10T13:39:38.387Z,13.76
2023-03-10T13:43:42.954Z,13.68
2023-03-10T13:47:45.136Z,13.66
2023-03-10T13:52:05.782Z,13.78
2023-03-10T13:56:21.831Z,14.12
2023-03-10T14:00:26.293Z,14.32
2023-03-10T14:04:48.328Z,14.74
2023-03-10T14:08:51.692Z,14.95
2023-03-10T14:12:54.670Z,14.88
2023-03-10T14:16:59.235Z,14.75
2023-03-10T14:21:31.303Z,14.85
2023-03-10T14:25:33.628Z,15.08
2023-03-10T14:29:35.803Z,15.32
2023-03-10T14:33:37.947Z,15.76
2023-03-10T14:37:40.187Z,16.38
2023-03-10T14:41:42.564Z,16.74
2023-03-10T14:45:46.685Z,16.84
2023-03-10T14:49:49.133Z,16.40
2023-03-10T14:53:53.204Z,16.45
2023-03-10T14:57:59.211Z,16.79
2023-03-10T15:02:29.407Z,16.97
2023-03-10T15:06:32.061Z,16.98
2023-03-10T15:10:49.202Z,16.58
2023-03-10T15:14:54.171Z,16.40
2023-03-10T15:18:56.612Z,16.18
2023-03-10T15:22:59.152Z,16.27
2023-03-10T15:27:01.887Z,16.41
2023-03-10T15:31:08.158Z,16.83
2023-03-10T15:35:12.449Z,16.57
2023-03-10T15:39:31.437Z,16.29
2023-03-10T15:43:37.768Z,16.16
2023-03-10T15:47:40.446Z,15.94
2023-03-10T15:51:42.621Z,15.62
2023-03-10T15:55:44.959Z,15.68
2023-03-10T15:59:47.413Z,15.30
2023-03-10T16:03:49.572Z,15.17
2023-03-10T16:07:52.214Z,14.36
2023-03-10T16:11:54.758Z,14.36
2023-03-10T16:15:58.493Z,14.06
2023-03-10T16:20:06.989Z,13.92
2023-03-10T16:24:09.415Z,13.97
2023-03-10T16:28:12.266Z,13.65
2023-03-10T16:32:15.164Z,13.57
2023-03-10T16:36:20.996Z,13.68
2023-03-10T16:40:23.973Z,13.56
2023-03-10T16:44:26.895Z,13.50
2023-03-10T16:48:30.085Z,13.57
2023-03-10T16:52:40.200Z,13.60
2023-03-10T16:56:45.348Z,13.36
2023-03-10T17:00:47.896Z,13.36
2023-03-10T17:04:53.962Z,13.41
2023-03-10T17:08:58.270Z,13.49
2023-03-10T17:13:00.728Z,13.49
2023-03-10T17:17:03.662Z,13.30
2023-03-10T17:21:21.947Z,13.21
2023-03-10T17:25:25.010Z,13.15
2023-03-10T17:29:28.361Z,13.15
2023-03-10T17:33:36.105Z,13.08
2023-03-10T17:37:38.743Z,13.07
2023-03-10T17:41:41.920Z,12.96
2023-03-10T17:45:45.037Z,12.85
2023-03-10T17:49:47.930Z,12.76
2023-03-10T17:53:53.528Z,12.73
2023-03-10T17:57:59.323Z,12.71
2023-03-10T18:02:03.977Z,12.64
2023-03-10T18:06:13.765Z,12.57
2023-03-10T18:10:22.844Z,12.52
2023-03-10T18:14:26.288Z,12.41
2023-03-10T18:18:31.145Z,12.44
2023-03-10T18:22:39.899Z,12.34
2023-03-10T18:26:46.441Z,12.33
2023-03-10T18:30:53.251Z,12.32
2023-03-10T18:35:00.139Z,12.40
2023-03-10T18:39:04.097Z,12.47
2023-03-10T18:43:06.745Z,12.50
2023-03-10T18:47:08.840Z,12.51
2023-03-10T18:51:13.501Z,12.56
2023-03-10T18:55:16.739Z,12.66
2023-03-10T18:59:19.550Z,12.70
2023-03-10T19:03:22.347Z,12.66
2023-03-10T19:07:25.571Z,12.69
2023-03-10T19:11:35.576Z,12.66
2023-03-10T19:15:38.841Z,12.64
2023-03-10T19:19:41.726Z,12.66
2023-03-10T19:23:45.750Z,12.63
2023-03-10T19:27:49.542Z,12.63
2023-03-10T19:31:51.916Z,12.63
2023-03-10T19:36:02.220Z,12.56
2023-03-10T19:40:08.481Z,12.44
2023-03-10T19:44:10.996Z,12.35
2023-03-10T19:48:14.384Z,12.34
2023-03-10T19:52:18.117Z,12.32
2023-03-10T19:56:21.987Z,12.27
2023-03-10T20:00:31.175Z,12.17
2023-03-10T20:04:35.451Z,12.16
2023-03-10T20:08:38.353Z,12.14
2023-03-10T20:12:40.765Z,12.13
2023-03-10T20:16:43.251Z,12.06
2023-03-10T20:20:45.522Z,12.04
2023-03-10T20:24:47.840Z,11.88
2023-03-10T20:28:50.653Z,11.90
2023-03-10T20:32:56.663Z,11.99
2023-03-10T20:37:01.951Z,12.03
2023-03-10T20:41:05.926Z,12.14
2023-03-10T20:45:10.428Z,12.12
2023-03-10T20:49:12.881Z,12.18
2023-03-10T20:53:15.278Z,12.19
2023-03-10T20:57:17.571Z,12.16
2023-03-10T21:01:21.847Z,12.13
2023-03-10T21:05:25.057Z,11.92
2023-03-10T21:09:27.772Z,11.90
2023-03-10T21:13:30.855Z,11.84
2023-03-10T21:17:33.496Z,11.80
2023-03-10T21:21:36.872Z,11.76
2023-03-10T21:25:40.537Z,11.70
2023-03-10T21:29:43.281Z,11.67
2023-03-10T21:33:45.736Z,11.55
2023-03-10T21:37:48.595Z,11.60
2023-03-10T21:41:51.124Z,11.57
2023-03-10T21:45:53.436Z,11.63
2023-03-10T21:49:55.880Z,11.69
2023-03-10T21:53:58.342Z,11.69
2023-03-10T21:58:01.463Z,11.67
2023-03-10T22:02:04.161Z,11.72
2023-03-10T22:06:06.564Z,11.78
2023-03-10T22:10:09.618Z,11.77
2023-03-10T22:14:12.015Z,11.75
2023-03-10T22:18:14.325Z,11.79
2023-03-10T22:22:16.893Z,11.75
2023-03-10T22:26:19.331Z,11.66
2023-03-10T22:30:24.431Z,11.57
2023-03-10T22:34:27.207Z,11.59
2023-03-10T22:38:29.662Z,11.59
2023-03-10T22:42:32.853Z,11.64
2023-03-10T22:46:35.370Z,11.73
2023-03-10T22:50:40.496Z,11.75
2023-03-10T22:54:43.435Z,11.81
2023-03-10T22:58:46.043Z,11.81
2023-03-10T23:02:50.480Z,11.69
2023-03-10T23:06:52.692Z,11.66
2023-03-10T23:10:55.291Z,11.55
2023-03-10T23:14:57.739Z,11.45
2023-03-10T23:19:00.887Z,11.37
2023-03-10T23:23:06.200Z,11.28
2023-03-10T23:27:08.398Z,11.26
2023-03-10T23:31:15.653Z,11.17
2023-03-10T23:35:22.215Z,11.20
2023-03-10T23:39:25.195Z,11.15
2023-03-10T23:43:28.049Z,11.13
2023-03-10T23:47:30.200Z,10.96
2023-03-10T23:51:32.433Z,10.89
2023-03-10T23:55:37.809Z,10.90
2023-03-10T23:59:41.764Z,10.90
